createdAt,value
2022-12-18T00:00:49.003Z,-4.70
2022-12-18T00:03:16.502Z,-4.70
2022-12-18T00:05:53.853Z,-4.80
2022-12-18T00:08:20.797Z,-4.70
2022-12-18T00:10:48.050Z,-4.80
2022-12-18T00:13:14.927Z,-4.70
2022-12-18T00:15:41.805Z,-4.70
2022-12-18T00:18:09.052Z,-4.70
2022-12-18T00:20:40.258Z,-4.60
2022-12-18T00:23:08.354Z,-4.60
2022-12-18T00:25:36.582Z,-4.40
2022-12-18T00:28:04.342Z,-4.50
2022-12-18T00:30:31.287Z,-4.60
2022-12-18T00:32:59.182Z,-4.60
2022-12-18T00:35:25.995Z,-4.60
2022-12-18T00:37:52.910Z,-4.50
2022-12-18T00:40:19.754Z,-4.60
2022-12-18T00:42:58.850Z,-4.60
2022-12-18T00:45:32.598Z,-4.60
2022-12-18T00:47:59.461Z,-4.70
2022-12-18T00:50:26.984Z,-4.70
2022-12-18T00:52:53.816Z,-4.60
2022-12-18T00:55:20.665Z,-4.60
2022-12-18T00:57:47.491Z,-4.70
2022-12-18T01:00:16.056Z,-4.70
2022-12-18T01:02:44.159Z,-4.70
2022-12-18T01:05:14.120Z,-4.80
2022-12-18T01:07:41.106Z,-4.80
2022-12-18T01:10:11.080Z,-4.80
2022-12-18T01:12:37.923Z,-4.80
2022-12-18T01:15:06.325Z,-4.90
2022-12-18T01:17:34.020Z,-4.80
2022-12-18T01:20:00.810Z,-4.80
2022-12-18T01:22:27.795Z,-4.80
2022-12-18T01:24:54.799Z,-4.60
2022-12-18T01:27:21.644Z,-4.70
2022-12-18T01:29:48.536Z,-4.70
2022-12-18T01:32:15.330Z,-4.70
2022-12-18T01:34:42.191Z,-4.70
2022-12-18T01:37:09.214Z,-4.70
2022-12-18T01:39:36.158Z,-4.70
2022-12-18T01:42:14.404Z,-4.60
2022-12-18T01:45:03.044Z,-4.70
2022-12-18T01:47:32.933Z,-4.50
2022-12-18T01:50:07.305Z,-4.40
2022-12-18T01:52:34.836Z,-4.50
2022-12-18T01:55:04.834Z,-4.40
2022-12-18T01:57:32.501Z,-4.50
2022-12-18T02:00:04.470Z,-4.40
2022-12-18T02:02:32.224Z,-4.50
2022-12-18T02:04:59.592Z,-4.50
2022-12-18T02:07:50.788Z,-4.50
2022-12-18T02:10:23.220Z,-4.60
2022-12-18T02:12:57.301Z,-4.60
2022-12-18T02:15:36.129Z,-4.60
2022-12-18T02:18:07.901Z,-4.60
2022-12-18T02:20:41.913Z,-4.60
2022-12-18T02:23:31.682Z,-4.60
2022-12-18T02:26:23.079Z,-4.60
2022-12-18T02:28:59.988Z,-4.60
2022-12-18T02:31:31.152Z,-4.70
2022-12-18T02:34:02.066Z,-4.70
2022-12-18T02:36:30.462Z,-4.70
2022-12-18T02:38:58.019Z,-4.70
2022-12-18T02:41:25.862Z,-4.70
2022-12-18T02:44:01.115Z,-4.80
2022-12-18T02:46:56.391Z,-4.70
2022-12-18T02:49:47.423Z,-4.70
2022-12-18T02:52:29.067Z,-4.80
2022-12-18T02:55:23.791Z,-4.80
2022-12-18T02:57:54.856Z,-4.80
2022-12-18T03:00:26.835Z,-4.80
2022-12-18T03:03:04.108Z,-4.80
2022-12-18T03:05:52.932Z,-4.70
2022-12-18T03:08:42.108Z,-4.70
2022-12-18T03:11:13.560Z,-4.70
2022-12-18T03:13:57.243Z,-4.70
2022-12-18T03:16:32.036Z,-4.70
2022-12-18T03:19:28.572Z,-4.60
2022-12-18T03:21:58.276Z,-4.60
2022-12-18T03:24:28.915Z,-4.60
2022-12-18T03:27:01.372Z,-4.60
2022-12-18T03:29:39.427Z,-4.50
2022-12-18T03:32:11.876Z,-4.50
2022-12-18T03:34:41.241Z,-4.70
2022-12-18T03:37:08.352Z,-4.60
2022-12-18T03:39:36.018Z,-4.60
2022-12-18T03:42:32.490Z,-4.70
2022-12-18T03:45:03.971Z,-4.70
2022-12-18T03:47:48.707Z,-4.60
2022-12-18T03:50:44.909Z,-4.60
2022-12-18T03:53:26.729Z,-4.60
2022-12-18T03:55:54.176Z,-4.60
2022-12-18T03:58:25.617Z,-4.50
2022-12-18T04:00:55.762Z,-4.50
2022-12-18T04:03:26.341Z,-4.50
2022-12-18T04:05:56.224Z,-4.50
2022-12-18T04:08:24.575Z,-4.40
2022-12-18T04:10:51.420Z,-4.40
2022-12-18T04:13:28.413Z,-4.40
2022-12-18T04:15:55.348Z,-4.40
2022-12-18T04:18:22.198Z,-4.50
2022-12-18T04:20:49.030Z,-4.50
2022-12-18T04:23:15.888Z,-4.60
2022-12-18T04:25:42.752Z,-4.60
2022-12-18T04:28:09.579Z,-4.40
2022-12-18T04:30:36.431Z,-4.70
2022-12-18T04:33:03.363Z,-4.70
2022-12-18T04:35:30.156Z,-4.80
2022-12-18T04:37:56.987Z,-4.80
2022-12-18T04:40:23.832Z,-4.70
2022-12-18T04:42:50.734Z,-4.70
2022-12-18T04:45:17.541Z,-4.60
2022-12-18T04:47:44.738Z,-4.60
2022-12-18T04:50:11.530Z,-4.60
2022-12-18T04:52:38.397Z,-4.60
2022-12-18T04:55:05.604Z,-4.50
2022-12-18T04:57:32.405Z,-4.50
2022-12-18T04:59:59.234Z,-4.50
2022-12-18T05:02:26.244Z,-4.50
2022-12-18T05:04:53.180Z,-4.40
2022-12-18T05:07:19.963Z,-4.50
2022-12-18T05:09:46.827Z,-4.50
2022-12-18T05:12:13.598Z,-4.50
2022-12-18T05:14:40.406Z,-4.50
2022-12-18T05:17:07.231Z,-4.50
2022-12-18T05:19:34.088Z,-4.50
2022-12-18T05:22:02.422Z,-4.40
2022-12-18T05:24:29.263Z,-4.40
2022-12-18T05:26:56.133Z,-4.40
2022-12-18T05:29:23.022Z,-4.40
2022-12-18T05:31:49.878Z,-4.40
2022-12-18T05:34:16.807Z,-4.40
2022-12-18T05:36:43.819Z,-4.40
2022-12-18T05:39:11.507Z,-4.50
2022-12-18T05:41:38.326Z,-4.40
2022-12-18T05:44:05.226Z,-4.40
2022-12-18T05:46:32.735Z,-4.40
2022-12-18T05:49:02.996Z,-4.60
2022-12-18T05:51:29.913Z,-4.70
2022-12-18T05:53:56.747Z,-4.70
2022-12-18T05:56:23.854Z,-4.70
2022-12-18T05:58:54.733Z,-4.60
2022-12-18T06:01:25.402Z,-4.60
2022-12-18T06:03:52.345Z,-4.60
2022-12-18T06:06:23.233Z,-4.60
2022-12-18T06:08:51.268Z,-4.50
2022-12-18T06:11:20.362Z,-4.60
2022-12-18T06:13:47.801Z,-4.50
2022-12-18T06:16:14.812Z,-4.50
2022-12-18T06:18:44.731Z,-4.50
2022-12-18T06:21:11.713Z,-4.50
2022-12-18T06:23:39.182Z,-4.50
2022-12-18T06:26:15.402Z,-4.40
2022-12-18T06:28:42.791Z,-4.50
2022-12-18T06:31:10.752Z,-4.50
2022-12-18T06:33:38.910Z,-4.50
2022-12-18T06:36:09.875Z,-4.60
2022-12-18T06:38:39.372Z,-4.50
2022-12-18T06:41:15.944Z,-4.60
2022-12-18T06:43:43.584Z,-4.50
2022-12-18T06:46:11.487Z,-4.60
2022-12-18T06:48:38.995Z,-4.60
2022-12-18T06:51:06.059Z,-4.60
2022-12-18T06:53:33.603Z,-4.70
2022-12-18T06:56:10.619Z,-4.70
2022-12-18T06:58:38.993Z,-4.60
2022-12-18T07:01:08.805Z,-4.60
2022-12-18T07:03:36.036Z,-4.60
2022-12-18T07:06:02.949Z,-4.60
2022-12-18T07:08:31.330Z,-4.50
2022-12-18T07:10:58.140Z,-4.50
2022-12-18T07:13:25.088Z,-4.50
2022-12-18T07:15:54.897Z,-4.40
2022-12-18T07:18:21.788Z,-4.40
2022-12-18T07:20:48.558Z,-4.40
2022-12-18T07:23:15.896Z,-4.40
2022-12-18T07:25:42.722Z,-4.30
2022-12-18T07:28:12.914Z,-4.30
2022-12-18T07:30:43.915Z,-4.20
2022-12-18T07:33:10.752Z,-4.20
2022-12-18T07:35:37.609Z,-4.30
2022-12-18T07:38:04.471Z,-4.30
2022-12-18T07:40:31.292Z,-4.30
2022-12-18T07:42:58.054Z,-4.20
2022-12-18T07:45:24.970Z,-4.20
2022-12-18T07:47:51.770Z,-4.20
2022-12-18T07:50:18.663Z,-4.10
2022-12-18T07:52:45.505Z,-4.20
2022-12-18T07:55:12.357Z,-4.10
2022-12-18T07:57:50.762Z,-4.20
2022-12-18T08:00:19.047Z,-4.20
2022-12-18T08:02:46.014Z,-4.20
2022-12-18T08:05:12.979Z,-4.20
2022-12-18T08:07:39.945Z,-4.20
2022-12-18T08:10:07.724Z,-4.20
2022-12-18T08:12:34.613Z,-4.20
2022-12-18T08:15:01.948Z,-4.20
2022-12-18T08:17:28.761Z,-4.20
2022-12-18T08:19:55.750Z,-4.20
2022-12-18T08:22:22.802Z,-4.10
2022-12-18T08:24:49.626Z,-3.90
2022-12-18T08:27:31.735Z,-3.90
2022-12-18T08:29:59.403Z,-3.90
2022-12-18T08:32:27.891Z,-3.90
2022-12-18T08:34:55.073Z,-3.80
2022-12-18T08:37:21.908Z,-3.80
2022-12-18T08:39:48.767Z,-3.80
2022-12-18T08:42:34.041Z,-3.70
2022-12-18T08:45:00.977Z,-3.70
2022-12-18T08:47:27.819Z,-3.70
2022-12-18T08:49:54.691Z,-3.60
2022-12-18T08:52:21.594Z,-3.60
2022-12-18T08:54:48.407Z,-3.50
2022-12-18T08:57:15.278Z,-3.60
2022-12-18T08:59:42.073Z,-3.40
2022-12-18T09:02:12.064Z,-3.60
2022-12-18T09:04:40.895Z,-3.70
2022-12-18T09:07:07.882Z,-3.70
2022-12-18T09:09:34.721Z,-3.20
2022-12-18T09:12:01.655Z,-3.60
2022-12-18T09:14:28.566Z,-3.80
2022-12-18T09:16:55.980Z,-3.70
2022-12-18T09:19:25.649Z,-3.60
2022-12-18T09:21:52.508Z,-3.60
2022-12-18T09:24:19.370Z,-3.50
2022-12-18T09:26:47.447Z,-3.50
2022-12-18T09:29:15.615Z,-3.40
2022-12-18T09:31:43.323Z,-3.40
2022-12-18T09:34:10.190Z,-3.40
2022-12-18T09:36:37.052Z,-3.40
2022-12-18T09:39:08.282Z,-3.50
2022-12-18T09:41:55.892Z,-3.30
2022-12-18T09:44:44.486Z,-3.40
2022-12-18T09:47:34.668Z,-3.30
2022-12-18T09:50:05.844Z,-3.40
2022-12-18T09:52:41.660Z,-3.50
2022-12-18T09:55:26.558Z,-3.40
2022-12-18T09:57:58.938Z,-3.50
2022-12-18T10:00:26.561Z,-3.40
2022-12-18T10:03:00.770Z,-3.20
2022-12-18T10:05:45.652Z,-3.20
2022-12-18T10:08:40.045Z,-3.30
2022-12-18T10:11:28.826Z,-3.30
2022-12-18T10:14:07.891Z,-2.90
2022-12-18T10:16:48.355Z,-2.70
2022-12-18T10:19:50.418Z,-2.50
2022-12-18T10:22:30.507Z,-2.70
2022-12-18T10:25:19.715Z,-2.80
2022-12-18T10:27:49.916Z,-2.80
2022-12-18T10:30:20.398Z,-2.70
2022-12-18T10:32:47.309Z,-2.60
2022-12-18T10:35:27.870Z,-2.50
2022-12-18T10:38:13.041Z,-2.40
2022-12-18T10:40:53.884Z,-2.50
2022-12-18T10:43:24.817Z,-2.50
2022-12-18T10:46:01.225Z,-2.50
2022-12-18T10:48:28.473Z,-2.30
2022-12-18T10:51:12.857Z,-2.50
2022-12-18T10:53:42.900Z,-2.70
2022-12-18T10:56:10.044Z,-2.80
2022-12-18T10:58:39.694Z,-2.90
2022-12-18T11:01:18.777Z,-2.80
2022-12-18T11:04:02.474Z,-2.80
2022-12-18T11:06:30.146Z,-3.00
2022-12-18T11:09:23.221Z,-2.70
2022-12-18T11:11:55.541Z,-2.50
2022-12-18T11:14:30.767Z,-2.60
2022-12-18T11:20:04.878Z,-3.10
2022-12-18T11:22:39.377Z,-3.00
2022-12-18T11:25:32.997Z,-3.10
2022-12-18T11:28:04.065Z,-3.30
2022-12-18T11:30:38.846Z,-3.50
2022-12-18T11:33:21.568Z,-3.40
2022-12-18T11:35:54.669Z,-3.20
2022-12-18T11:38:35.610Z,-3.10
2022-12-18T11:41:08.605Z,-3.00
2022-12-18T11:43:43.297Z,-3.10
2022-12-18T11:46:19.645Z,-3.10
2022-12-18T11:49:04.504Z,-3.00
2022-12-18T11:51:48.344Z,-3.10
2022-12-18T11:54:17.160Z,-2.80
2022-12-18T11:57:08.183Z,-2.70
2022-12-18T11:59:40.878Z,-2.60
2022-12-18T12:02:30.886Z,-2.60
2022-12-18T12:05:31.741Z,-2.70
2022-12-18T12:08:10.536Z,-2.50
2022-12-18T12:11:07.898Z,-2.70
2022-12-18T12:13:59.589Z,-2.60
2022-12-18T12:16:30.182Z,-2.60
2022-12-18T12:19:00.083Z,-2.60
2022-12-18T12:21:39.227Z,-2.90
2022-12-18T12:24:12.482Z,-2.70
2022-12-18T12:26:46.340Z,-2.60
2022-12-18T12:29:28.785Z,-2.50
2022-12-18T12:32:18.509Z,-2.60
2022-12-18T12:35:09.409Z,-2.50
2022-12-18T12:37:56.533Z,-2.40
2022-12-18T12:40:52.077Z,-2.30
2022-12-18T12:43:21.751Z,-2.40
2022-12-18T12:46:08.121Z,-2.50
2022-12-18T12:48:56.438Z,-2.70
2022-12-18T12:51:30.893Z,-1.90
2022-12-18T12:54:00.351Z,-2.70
2022-12-18T12:56:55.735Z,-2.60
2022-12-18T12:59:49.072Z,-2.70
2022-12-18T13:02:48.498Z,-2.30
2022-12-18T13:05:30.876Z,-2.20
2022-12-18T13:08:09.941Z,-2.30
2022-12-18T13:10:42.921Z,-2.40
2022-12-18T13:13:13.564Z,-2.40
2022-12-18T13:16:03.867Z,-2.60
2022-12-18T13:18:31.090Z,-2.70
2022-12-18T13:21:01.600Z,-2.80
2022-12-18T13:23:34.091Z,-3.00
2022-12-18T13:26:07.226Z,-3.00
2022-12-18T13:28:34.272Z,-2.80
2022-12-18T13:31:02.375Z,-2.80
2022-12-18T13:34:23.903Z,-2.90
2022-12-18T13:36:36.236Z,-3.00
2022-12-18T13:42:51.750Z,-2.60
2022-12-18T13:45:42.681Z,-2.80
2022-12-18T13:48:22.425Z,-2.80
2022-12-18T13:51:09.709Z,-2.70
2022-12-18T13:53:40.121Z,-2.60
2022-12-18T13:56:07.447Z,-2.90
2022-12-18T13:58:34.423Z,-2.90
2022-12-18T14:01:03.075Z,-3.00
2022-12-18T14:03:31.696Z,-3.00
2022-12-18T14:06:05.811Z,-3.10
2022-12-18T14:08:42.015Z,-3.10
2022-12-18T14:11:21.695Z,-3.10
2022-12-18T14:13:49.229Z,-3.20
2022-12-18T14:16:18.539Z,-2.80
2022-12-18T14:18:47.060Z,-3.30
2022-12-18T14:21:30.284Z,-3.30
2022-12-18T14:24:07.741Z,-3.30
2022-12-18T14:26:34.758Z,-3.40
2022-12-18T14:29:26.261Z,-3.50
2022-12-18T14:32:18.876Z,-3.60
2022-12-18T14:34:48.081Z,-3.60
2022-12-18T14:37:18.204Z,-3.70
2022-12-18T14:40:10.499Z,-3.70
2022-12-18T14:42:38.306Z,-3.80
2022-12-18T14:45:37.636Z,-3.80
2022-12-18T14:48:18.993Z,-3.80
2022-12-18T14:51:02.324Z,-3.80
2022-12-18T14:53:54.587Z,-3.90
2022-12-18T14:56:27.978Z,-3.90
2022-12-18T14:59:00.143Z,-4.00
2022-12-18T15:01:40.055Z,-4.00
2022-12-18T15:04:32.465Z,-4.00
2022-12-18T15:07:14.661Z,-4.10
2022-12-18T15:09:43.821Z,-4.10
2022-12-18T15:12:37.469Z,-4.20
2022-12-18T15:15:05.809Z,-4.20
2022-12-18T15:17:32.883Z,-4.20
2022-12-18T15:20:03.199Z,-4.30
2022-12-18T15:22:34.587Z,-4.30
2022-12-18T15:25:02.475Z,-4.30
2022-12-18T15:27:38.880Z,-4.30
2022-12-18T15:30:11.428Z,-4.40
2022-12-18T15:32:41.105Z,-4.40
2022-12-18T15:35:25.180Z,-4.40
2022-12-18T15:37:53.121Z,-4.50
2022-12-18T15:40:22.483Z,-4.50
2022-12-18T15:43:13.478Z,-4.50
2022-12-18T15:45:40.478Z,-4.50
2022-12-18T15:48:22.768Z,-4.60
2022-12-18T15:50:52.048Z,-4.60
2022-12-18T15:53:19.737Z,-4.60
2022-12-18T15:56:05.463Z,-4.60
2022-12-18T15:58:32.292Z,-4.60
2022-12-18T16:01:00.333Z,-4.40
2022-12-18T16:03:27.217Z,-4.70
2022-12-18T16:05:54.209Z,-4.70
2022-12-18T16:08:21.137Z,-4.80
2022-12-18T16:10:48.227Z,-4.80
2022-12-18T16:13:19.826Z,-4.90
2022-12-18T16:15:46.754Z,-4.90
2022-12-18T16:18:13.932Z,-4.90
2022-12-18T16:20:40.915Z,-4.90
2022-12-18T16:23:08.216Z,-4.90
2022-12-18T16:25:35.115Z,-5.00
2022-12-18T16:28:02.196Z,-5.10
2022-12-18T16:30:33.098Z,-5.10
2022-12-18T16:33:05.883Z,-5.10
2022-12-18T16:35:34.532Z,-5.10
2022-12-18T16:38:01.325Z,-5.10
2022-12-18T16:40:28.160Z,-5.00
2022-12-18T16:42:54.944Z,-5.00
2022-12-18T16:45:21.780Z,-5.00
2022-12-18T16:47:48.622Z,-5.00
2022-12-18T16:50:15.419Z,-5.10
2022-12-18T16:52:42.387Z,-4.90
2022-12-18T16:55:10.030Z,-5.10
2022-12-18T16:57:36.866Z,-5.20
2022-12-18T17:00:06.050Z,-5.20
2022-12-18T17:02:33.987Z,-5.20
2022-12-18T17:05:01.010Z,-5.20
2022-12-18T17:07:28.754Z,-5.30
2022-12-18T17:09:56.006Z,-5.30
2022-12-18T17:12:23.053Z,-5.30
2022-12-18T17:14:50.224Z,-5.30
2022-12-18T17:17:22.381Z,-5.30
2022-12-18T17:19:50.696Z,-5.40
2022-12-18T17:22:17.526Z,-5.40
2022-12-18T17:24:44.437Z,-5.50
2022-12-18T17:27:11.320Z,-5.50
2022-12-18T17:29:41.276Z,-5.60
2022-12-18T17:32:13.554Z,-5.60
2022-12-18T17:34:40.748Z,-5.60
2022-12-18T17:37:07.691Z,-5.60
2022-12-18T17:39:34.529Z,-5.60
2022-12-18T17:42:01.375Z,-5.70
2022-12-18T17:44:28.214Z,-5.70
2022-12-18T17:46:55.290Z,-5.80
2022-12-18T17:49:22.291Z,-5.80
2022-12-18T17:51:49.105Z,-5.70
2022-12-18T17:54:16.111Z,-5.70
2022-12-18T17:56:43.214Z,-5.80
2022-12-18T17:59:10.014Z,-5.80
2022-12-18T18:01:43.778Z,-5.90
2022-12-18T18:04:11.849Z,-5.90
2022-12-18T18:06:39.321Z,-6.00
2022-12-18T18:09:08.245Z,-6.00
2022-12-18T18:12:01.598Z,-6.10
2022-12-18T18:14:28.587Z,-6.10
2022-12-18T18:16:55.438Z,-6.10
2022-12-18T18:19:24.997Z,-6.20
2022-12-18T18:21:53.994Z,-6.20
2022-12-18T18:24:23.607Z,-6.20
2022-12-18T18:26:50.684Z,-6.20
2022-12-18T18:29:28.886Z,-6.20
2022-12-18T18:31:56.910Z,-6.20
2022-12-18T18:34:27.811Z,-6.30
2022-12-18T18:36:54.640Z,-6.30
2022-12-18T18:39:21.622Z,-6.40
2022-12-18T18:41:48.928Z,-6.40
2022-12-18T18:44:21.555Z,-6.40
2022-12-18T18:46:57.234Z,-6.40
2022-12-18T18:49:27.565Z,-6.40
2022-12-18T18:51:55.839Z,-6.50
2022-12-18T18:54:22.762Z,-6.60
2022-12-18T18:59:37.285Z,-6.60
2022-12-18T19:02:05.014Z,-6.30
2022-12-18T19:04:34.968Z,-6.30
2022-12-18T19:07:02.222Z,-6.50
2022-12-18T19:09:29.478Z,-6.60
2022-12-18T19:12:15.441Z,-6.70
2022-12-18T19:14:42.993Z,-6.80
2022-12-18T19:17:10.225Z,-6.80
2022-12-18T19:19:37.260Z,-6.80
2022-12-18T19:22:04.209Z,-6.80
2022-12-18T19:24:31.508Z,-6.80
2022-12-18T19:26:58.590Z,-6.80
2022-12-18T19:29:25.606Z,-6.80
2022-12-18T19:31:52.673Z,-6.70
2022-12-18T19:34:19.683Z,-6.80
2022-12-18T19:36:46.688Z,-6.80
2022-12-18T19:39:16.469Z,-6.80
2022-12-18T19:41:44.457Z,-6.80
2022-12-18T19:44:13.753Z,-6.80
2022-12-18T19:46:42.314Z,-6.70
2022-12-18T19:49:16.744Z,-6.50
2022-12-18T19:51:45.479Z,-6.50
2022-12-18T19:54:16.719Z,-6.40
2022-12-18T19:56:44.524Z,-6.40
2022-12-18T19:59:11.289Z,-6.40
2022-12-18T20:01:38.317Z,-6.30
2022-12-18T20:04:05.540Z,-6.30
2022-12-18T20:06:34.387Z,-6.30
2022-12-18T20:09:05.117Z,-6.20
2022-12-18T20:11:33.388Z,-6.20
2022-12-18T20:14:03.480Z,-6.20
2022-12-18T20:16:30.879Z,-6.20
2022-12-18T20:18:58.835Z,-6.20
2022-12-18T20:21:26.014Z,-6.20
2022-12-18T20:23:54.488Z,-6.10
2022-12-18T20:26:21.859Z,-6.10
2022-12-18T20:28:48.911Z,-6.10
2022-12-18T20:31:15.699Z,-5.70
2022-12-18T20:33:46.006Z,-6.20
2022-12-18T20:36:20.110Z,-6.10
2022-12-18T20:38:49.732Z,-6.20
2022-12-18T20:41:19.204Z,-6.10
2022-12-18T20:43:46.793Z,-6.00
2022-12-18T20:46:16.194Z,-6.00
2022-12-18T20:48:44.727Z,-6.00
2022-12-18T20:51:14.512Z,-6.00
2022-12-18T20:53:41.780Z,-5.90
2022-12-18T20:56:17.788Z,-5.90
2022-12-18T20:58:49.371Z,-5.90
2022-12-18T21:01:19.211Z,-5.80
2022-12-18T21:03:47.437Z,-5.90
2022-12-18T21:06:17.486Z,-5.90
2022-12-18T21:08:44.859Z,-5.90
2022-12-18T21:11:48.282Z,-5.80
2022-12-18T21:14:21.393Z,-5.80
2022-12-18T21:16:48.981Z,-5.70
2022-12-18T21:19:18.715Z,-5.70
2022-12-18T21:21:46.423Z,-5.70
2022-12-18T21:24:13.604Z,-5.70
2022-12-18T21:26:46.134Z,-5.70
2022-12-18T21:29:24.726Z,-5.70
2022-12-18T21:31:54.262Z,-5.60
2022-12-18T21:34:25.562Z,-5.60
2022-12-18T21:36:52.629Z,-5.60
2022-12-18T21:39:20.072Z,-5.60
2022-12-18T21:42:08.606Z,-5.60
2022-12-18T21:44:41.617Z,-5.50
2022-12-18T21:47:21.666Z,-5.50
2022-12-18T21:49:53.333Z,-5.50
2022-12-18T21:52:26.284Z,-5.40
2022-12-18T21:55:07.978Z,-5.40
2022-12-18T21:57:37.193Z,-5.40
2022-12-18T22:00:05.444Z,-5.40
2022-12-18T22:02:32.555Z,-5.40
2022-12-18T22:04:59.852Z,-5.30
2022-12-18T22:07:29.020Z,-5.30
2022-12-18T22:09:55.866Z,-5.30
2022-12-18T22:12:35.854Z,-5.30
2022-12-18T22:15:14.352Z,-5.30
2022-12-18T22:17:48.079Z,-5.20
2022-12-18T22:20:16.055Z,-5.20
2022-12-18T22:22:42.891Z,-5.20
2022-12-18T22:25:10.710Z,-5.20
2022-12-18T22:27:37.905Z,-5.20
2022-12-18T22:30:05.832Z,-5.20
2022-12-18T22:32:35.072Z,-5.10
2022-12-18T22:35:08.372Z,-5.10
2022-12-18T22:37:37.445Z,-5.10
2022-12-18T22:40:06.011Z,-5.00
2022-12-18T22:42:34.250Z,-5.10
2022-12-18T22:45:01.047Z,-5.10
2022-12-18T22:47:30.532Z,-5.10
2022-12-18T22:49:58.136Z,-5.10
2022-12-18T22:52:25.550Z,-5.10
2022-12-18T22:54:53.696Z,-5.10
2022-12-18T22:57:24.953Z,-5.10
2022-12-18T22:59:55.069Z,-5.10
2022-12-18T23:02:22.108Z,-5.10
2022-12-18T23:04:49.291Z,-4.90
2022-12-18T23:07:16.978Z,-5.00
2022-12-18T23:09:44.283Z,-5.10
2022-12-18T23:12:15.691Z,-5.00
2022-12-18T23:14:42.660Z,-5.10
2022-12-18T23:17:09.486Z,-5.10
2022-12-18T23:19:36.829Z,-5.10
2022-12-18T23:22:08.568Z,-5.00
2022-12-18T23:24:38.385Z,-5.00
2022-12-18T23:27:05.726Z,-5.00
2022-12-18T23:29:36.407Z,-5.00
2022-12-18T23:32:03.243Z,-5.00
2022-12-18T23:34:30.136Z,-5.00
2022-12-18T23:36:57.517Z,-5.00
2022-12-18T23:39:29.278Z,-4.90
2022-12-18T23:42:00.801Z,-4.90
2022-12-18T23:44:28.257Z,-4.90
2022-12-18T23:46:55.307Z,-4.90
2022-12-18T23:49:22.380Z,-4.90
2022-12-18T23:51:49.592Z,-4.90
2022-12-18T23:54:16.494Z,-4.90
2022-12-18T23:56:43.376Z,-4.90
2022-12-18T23:59:10.429Z,-4.90
